Kaprifol — 5BXX2 — position and weather

sailwx.info

Track history (hours):
 
Tides and Currents Weather Stations Pressure Air Temp Water Temp Dewpoint Dewpoint Depression Visibility Wind Speed Wind Dir Waves Ship Positions

Kaprifol

Last reported at 2017-Aug-18 20:39 UTC. Time now 2017-Aug-19 01:57 UTC.
Position N 66°28' E 011°21'.

Length 89 m; draft 4.7 m.

Type: Tanker. MMSI: 210445000.

Date/timePositionNaut miles runAvg speedWind from/ knotsBaromVisibWave heightAir tempDewpointWater temp
2017-Aug-18 20:39N 66°28' E 011°21'210.7
2017-Aug-18 20:29N 66°30' E 011°22'610.4
2017-Aug-18 19:57N 66°35' E 011°28'510.5
2017-Aug-18 19:28N 66°40' E 011°32'5410.6
2017-Aug-18 14:22N 67°20' E 013°04'1011.4
2017-Aug-18 13:30N 67°27' E 013°22'611.9
2017-Aug-18 13:00N 67°32' E 013°32'611.6
2017-Aug-18 12:30N 67°36' E 013°42'611.7
2017-Aug-18 11:59N 67°40' E 013°53'611.5
2017-Aug-18 11:30N 67°45' E 014°02'611.1
2017-Aug-18 11:00N 67°49' E 014°12'511.0
2017-Aug-18 10:30N 67°53' E 014°22'510.8
2017-Aug-18 10:00N 67°57' E 014°32'510.3
2017-Aug-18 09:30N 68°01' E 014°41'510.3
2017-Aug-18 09:00N 68°04' E 014°52'510.3
2017-Aug-18 08:30N 68°06' E 015°03'510.6
2017-Aug-18 08:00N 68°09' E 015°15'611.2
2017-Aug-18 07:30N 68°12' E 015°28'4 8.4
2017-Aug-18 07:00N 68°13' E 015°17'611.1
2017-Aug-18 06:30N 68°13' E 015°02'4 8.6
2017-Aug-18 05:59N 68°17' E 014°58'611.1
2017-Aug-18 05:30N 68°22' E 015°03'611.5
2017-Aug-18 05:00N 68°27' E 015°11'5 9.8
2017-Aug-18 04:30N 68°32' E 015°07'5 9.9
2017-Aug-18 04:00N 68°35' E 014°57'0 0.1
2017-Aug-18 03:22N 68°35' E 014°57'0 0.0
2017-Aug-18 02:58N 68°35' E 014°57'0 0.0
2017-Aug-18 02:28N 68°35' E 014°57'0 0.0
2017-Aug-18 01:58N 68°35' E 014°57'0 0.0
2017-Aug-18 01:28N 68°35' E 014°57'0 0.0
2017-Aug-18 00:58N 68°35' E 014°57'0 0.0
2017-Aug-18 00:28N 68°35' E 014°57'0 0.0
2017-Aug-17 23:58N 68°35' E 014°57'0 0.0
2017-Aug-17 23:28N 68°35' E 014°57'0 0.0
2017-Aug-17 22:58N 68°35' E 014°57'0 0.0
2017-Aug-17 22:28N 68°35' E 014°57'0 0.0
2017-Aug-17 21:58N 68°35' E 014°57'0 0.0
2017-Aug-17 21:28N 68°35' E 014°57'0 0.0
2017-Aug-17 20:58N 68°35' E 014°57'0 0.0
2017-Aug-17 20:28N 68°35' E 014°57'0 0.4
2017-Aug-17 20:00N 68°35' E 014°57'12 9.0
2017-Aug-17 18:41N 68°23' E 015°05'210.6
2017-Aug-17 18:30N 68°21' E 015°02'611.1
2017-Aug-17 18:00N 68°16' E 014°58'4 7.9
2017-Aug-17 17:30N 68°13' E 015°04'611.7
2017-Aug-17 17:00N 68°12' E 015°20'611.3
2017-Aug-17 16:30N 68°12' E 015°35'4 8.8
2017-Aug-17 16:00N 68°10' E 015°24'611.8
2017-Aug-17 15:30N 68°07' E 015°10'611.9
2017-Aug-17 15:00N 68°04' E 014°57'612.2
2017-Aug-17 14:30N 68°01' E 014°43'612.1
2017-Aug-17 14:00N 67°58' E 014°29'612.1
2017-Aug-17 13:30N 67°55' E 014°15'612.0
2017-Aug-17 13:00N 67°52' E 014°02'611.7
2017-Aug-17 12:30N 67°48' E 013°49'611.4
2017-Aug-17 12:00N 67°45' E 013°37'511.2
2017-Aug-17 11:31N 67°42' E 013°25'611.7
2017-Aug-17 11:00N 67°39' E 013°12'611.8
2017-Aug-17 10:30N 67°35' E 012°59'611.3
2017-Aug-17 10:00N 67°32' E 012°47'611.1
2017-Aug-17 09:30N 67°29' E 012°35'611.1
2017-Aug-17 09:00N 67°26' E 012°23'  
2017-Aug-09 05:51N 57°41' W 001°22'4310.1
2017-Aug-09 01:32N 56°58' W 001°36'0 9.5
2017-Aug-09 01:30N 56°58' W 001°36'5 9.7
2017-Aug-09 01:00N 56°53' W 001°39'8 9.9
2017-Aug-09 00:09N 56°45' W 001°43'510.3
2017-Aug-08 23:39N 56°40' W 001°45'1010.1
2017-Aug-08 22:39N 56°32' W 001°57'110.6
2017-Aug-08 22:30N 56°31' W 001°59'510.7
2017-Aug-08 22:00N 56°27' W 002°06'611.1
2017-Aug-08 21:30N 56°24' W 002°13'611.3
2017-Aug-08 21:01N 56°20' W 002°21'  
Track history (hours):
 
Tides and Currents Weather Stations Pressure Air Temp Water Temp Dewpoint Dewpoint Depression Visibility Wind Speed Wind Dir Waves Ship Positions

Kaprifol

Last reported at 2017-Aug-18 20:39 UTC. Time now 2017-Aug-19 01:57 UTC.
Position N 66°28' E 011°21'.

Length 89 m; draft 4.7 m.

Type: Tanker. MMSI: 210445000.

Date/timePositionNaut miles runAvg speedWind from/ knotsBaromVisibWave heightAir tempDewpointWater temp
2017-Aug-18 20:39N 66°28' E 011°21'210.7
2017-Aug-18 20:29N 66°30' E 011°22'610.4
2017-Aug-18 19:57N 66°35' E 011°28'510.5
2017-Aug-18 19:28N 66°40' E 011°32'5410.6
2017-Aug-18 14:22N 67°20' E 013°04'1011.4
2017-Aug-18 13:30N 67°27' E 013°22'611.9
2017-Aug-18 13:00N 67°32' E 013°32'611.6
2017-Aug-18 12:30N 67°36' E 013°42'611.7
2017-Aug-18 11:59N 67°40' E 013°53'611.5
2017-Aug-18 11:30N 67°45' E 014°02'611.1
2017-Aug-18 11:00N 67°49' E 014°12'511.0
2017-Aug-18 10:30N 67°53' E 014°22'510.8
2017-Aug-18 10:00N 67°57' E 014°32'510.3
2017-Aug-18 09:30N 68°01' E 014°41'510.3
2017-Aug-18 09:00N 68°04' E 014°52'510.3
2017-Aug-18 08:30N 68°06' E 015°03'510.6
2017-Aug-18 08:00N 68°09' E 015°15'611.2
2017-Aug-18 07:30N 68°12' E 015°28'4 8.4
2017-Aug-18 07:00N 68°13' E 015°17'611.1
2017-Aug-18 06:30N 68°13' E 015°02'4 8.6
2017-Aug-18 05:59N 68°17' E 014°58'611.1
2017-Aug-18 05:30N 68°22' E 015°03'611.5
2017-Aug-18 05:00N 68°27' E 015°11'5 9.8
2017-Aug-18 04:30N 68°32' E 015°07'5 9.9
2017-Aug-18 04:00N 68°35' E 014°57'0 0.1
2017-Aug-18 03:22N 68°35' E 014°57'0 0.0
2017-Aug-18 02:58N 68°35' E 014°57'0 0.0
2017-Aug-18 02:28N 68°35' E 014°57'0 0.0
2017-Aug-18 01:58N 68°35' E 014°57'0 0.0
2017-Aug-18 01:28N 68°35' E 014°57'0 0.0
2017-Aug-18 00:58N 68°35' E 014°57'0 0.0
2017-Aug-18 00:28N 68°35' E 014°57'0 0.0
2017-Aug-17 23:58N 68°35' E 014°57'0 0.0
2017-Aug-17 23:28N 68°35' E 014°57'0 0.0
2017-Aug-17 22:58N 68°35' E 014°57'0 0.0
2017-Aug-17 22:28N 68°35' E 014°57'0 0.0
2017-Aug-17 21:58N 68°35' E 014°57'0 0.0
2017-Aug-17 21:28N 68°35' E 014°57'0 0.0
2017-Aug-17 20:58N 68°35' E 014°57'0 0.0
2017-Aug-17 20:28N 68°35' E 014°57'0 0.4
2017-Aug-17 20:00N 68°35' E 014°57'12 9.0
2017-Aug-17 18:41N 68°23' E 015°05'210.6
2017-Aug-17 18:30N 68°21' E 015°02'611.1
2017-Aug-17 18:00N 68°16' E 014°58'4 7.9
2017-Aug-17 17:30N 68°13' E 015°04'611.7
2017-Aug-17 17:00N 68°12' E 015°20'611.3
2017-Aug-17 16:30N 68°12' E 015°35'4 8.8
2017-Aug-17 16:00N 68°10' E 015°24'611.8
2017-Aug-17 15:30N 68°07' E 015°10'611.9
2017-Aug-17 15:00N 68°04' E 014°57'612.2
2017-Aug-17 14:30N 68°01' E 014°43'612.1
2017-Aug-17 14:00N 67°58' E 014°29'612.1
2017-Aug-17 13:30N 67°55' E 014°15'612.0
2017-Aug-17 13:00N 67°52' E 014°02'611.7
2017-Aug-17 12:30N 67°48' E 013°49'611.4
2017-Aug-17 12:00N 67°45' E 013°37'511.2
2017-Aug-17 11:31N 67°42' E 013°25'611.7
2017-Aug-17 11:00N 67°39' E 013°12'611.8
2017-Aug-17 10:30N 67°35' E 012°59'611.3
2017-Aug-17 10:00N 67°32' E 012°47'611.1
2017-Aug-17 09:30N 67°29' E 012°35'611.1
2017-Aug-17 09:00N 67°26' E 012°23'  
2017-Aug-09 05:51N 57°41' W 001°22'4310.1
2017-Aug-09 01:32N 56°58' W 001°36'0 9.5
2017-Aug-09 01:30N 56°58' W 001°36'5 9.7
2017-Aug-09 01:00N 56°53' W 001°39'8 9.9
2017-Aug-09 00:09N 56°45' W 001°43'510.3
2017-Aug-08 23:39N 56°40' W 001°45'1010.1
2017-Aug-08 22:39N 56°32' W 001°57'110.6
2017-Aug-08 22:30N 56°31' W 001°59'510.7
2017-Aug-08 22:00N 56°27' W 002°06'611.1
2017-Aug-08 21:30N 56°24' W 002°13'611.3
2017-Aug-08 21:01N 56°20' W 002°21'  

Dump ship's entire track history